Time;durP1;ratioP1;P1;durP2;ratioP2;P2;SDS_P1;SDS_P2;PMS_P1;PMS_P2;Temp;Humidity;BMP_temperature;BMP_pressure;BME280_temperature;BME280_humidity;BME280_pressure;Samples;Min_cycle;Max_cycle;Signal;HPM_P1;HPM_P2
2022/10/02 00:01:30;;;;;;;8.30;2.90;;;13.10;99.90;;;;;;5007486;28;20464;-71
2022/10/02 00:03:57;;;;;;;7.70;2.90;;;13.20;99.90;;;;;;5014775;28;20468;-72
2022/10/02 00:06:27;;;;;;;4.77;2.60;;;13.20;99.90;;;;;;5008474;28;20468;-72
2022/10/02 00:08:58;;;;;;;3.80;2.07;;;13.20;99.90;;;;;;5002550;28;20999;-70
2022/10/02 00:11:31;;;;;;;6.90;2.80;;;13.20;99.90;;;;;;4990417;28;20525;-70
2022/10/02 00:14:02;;;;;;;7.47;2.10;;;13.20;99.90;;;;;;4990582;28;20464;-71
2022/10/02 00:16:32;;;;;;;4.73;2.03;;;13.20;99.90;;;;;;5009364;28;20482;-71
2022/10/02 00:18:58;;;;;;;3.20;2.30;;;13.20;99.90;;;;;;4994100;28;20537;-71
2022/10/02 00:21:23;;;;;;;4.87;2.23;;;13.20;99.90;;;;;;5015610;28;20534;-71
2022/10/02 00:23:55;;;;;;;4.23;2.30;;;13.20;99.90;;;;;;5029803;28;21054;-72
2022/10/02 00:26:24;;;;;;;10.73;2.83;;;13.20;99.90;;;;;;5005363;28;20618;-72
2022/10/02 00:29:08;;;;;;;5.57;2.20;;;13.20;99.90;;;;;;5010002;28;20456;-73
2022/10/02 00:31:40;;;;;;;4.57;2.47;;;13.20;99.90;;;;;;5007626;28;20444;-72
2022/10/02 00:34:28;;;;;;;3.10;2.00;;;13.20;99.90;;;;;;5011384;28;21010;-71
2022/10/02 00:37:01;;;;;;;10.20;2.33;;;13.20;99.90;;;;;;5014514;28;20506;-72
2022/10/02 00:39:35;;;;;;;2.00;1.77;;;13.20;99.90;;;;;;5012115;28;20455;-71
2022/10/02 00:42:31;;;;;;;4.37;2.23;;;13.20;99.90;;;;;;5023531;28;20459;-71
2022/10/02 00:45:25;;;;;;;8.80;2.00;;;13.20;99.90;;;;;;5005966;28;20840;-72
2022/10/02 00:48:02;;;;;;;5.47;2.50;;;13.20;99.90;;;;;;5018772;28;21066;-70
2022/10/02 00:50:37;;;;;;;2.77;2.00;;;13.20;99.90;;;;;;5012876;28;20475;-71
2022/10/02 00:53:06;;;;;;;1.77;1.67;;;13.20;99.90;;;;;;4998140;28;20457;-72
2022/10/02 00:55:50;;;;;;;7.27;2.50;;;13.20;99.90;;;;;;5010767;28;20468;-70
2022/10/02 00:58:44;;;;;;;3.50;2.17;;;13.20;99.90;;;;;;5011262;28;20550;-71
2022/10/02 01:01:35;;;;;;;6.60;2.30;;;13.20;99.90;;;;;;5017931;28;20456;-70
2022/10/02 01:04:06;;;;;;;13.63;2.60;;;13.20;99.90;;;;;;5023493;28;20449;-72
2022/10/02 01:06:31;;;;;;;6.87;2.33;;;13.20;99.90;;;;;;5019210;28;20456;-73
2022/10/02 01:08:58;;;;;;;6.90;2.27;;;13.20;99.90;;;;;;4997935;28;20448;-71
2022/10/02 01:11:25;;;;;;;5.13;2.27;;;13.20;99.90;;;;;;5013065;28;20224;-72
2022/10/02 01:13:52;;;;;;;2.53;1.63;;;13.20;99.90;;;;;;5032659;28;20452;-71
2022/10/02 01:16:17;;;;;;;4.03;2.50;;;13.20;99.90;;;;;;5013106;28;20532;-72
2022/10/02 01:18:47;;;;;;;3.50;2.40;;;13.20;99.90;;;;;;5024410;28;20524;-72
2022/10/02 01:21:35;;;;;;;10.40;2.43;;;13.20;99.90;;;;;;5007836;28;20217;-71
2022/10/02 01:24:27;;;;;;;7.43;2.53;;;13.20;99.90;;;;;;5011265;28;20975;-71
2022/10/02 01:26:52;;;;;;;3.10;1.70;;;13.10;99.90;;;;;;5003423;28;20878;-70
2022/10/02 01:29:18;;;;;;;2.93;2.47;;;13.10;99.90;;;;;;4998167;28;20618;-71
2022/10/02 01:31:44;;;;;;;12.70;3.73;;;13.10;99.90;;;;;;5014455;28;20245;-71
2022/10/02 01:34:10;;;;;;;7.50;2.10;;;13.10;99.90;;;;;;5023448;28;20229;-71
2022/10/02 01:36:36;;;;;;;3.90;1.93;;;13.10;99.90;;;;;;5006315;28;20225;-70
2022/10/02 01:39:02;;;;;;;4.30;1.70;;;13.10;99.90;;;;;;5010984;28;20449;-71
2022/10/02 01:41:28;;;;;;;3.97;2.00;;;13.10;99.90;;;;;;5013351;28;20307;-70
2022/10/02 01:43:57;;;;;;;7.30;3.60;;;13.20;99.90;;;;;;5001300;28;20464;-71
2022/10/02 01:46:51;;;;;;;5.90;2.50;;;13.10;99.90;;;;;;5015861;28;20217;-71
2022/10/02 01:49:33;;;;;;;3.83;2.30;;;13.10;99.90;;;;;;5026670;28;20472;-72
2022/10/02 01:52:27;;;;;;;5.83;1.80;;;13.10;99.90;;;;;;4999954;28;20464;-72
2022/10/02 01:55:15;;;;;;;4.40;1.70;;;13.10;99.90;;;;;;5012462;28;20454;-71
2022/10/02 01:57:47;;;;;;;9.47;2.33;;;13.10;99.90;;;;;;5017246;28;20559;-71
2022/10/02 02:00:24;;;;;;;2.30;1.77;;;13.10;99.90;;;;;;5016471;28;20514;-72
2022/10/02 02:03:22;;;;;;;12.13;2.27;;;13.10;99.90;;;;;;5001032;28;20455;-72
2022/10/02 02:05:59;;;;;;;4.30;1.73;;;13.10;99.90;;;;;;5010320;28;20539;-70
2022/10/02 02:08:33;;;;;;;5.73;2.37;;;13.10;99.90;;;;;;5025970;28;20456;-70
2022/10/02 02:11:18;;;;;;;8.53;2.37;;;13.10;99.90;;;;;;4995690;28;20822;-72
2022/10/02 02:13:46;;;;;;;3.53;1.80;;;13.10;99.90;;;;;;5008521;28;20466;-71
2022/10/02 02:16:30;;;;;;;8.50;1.83;;;13.10;99.90;;;;;;5029920;28;20526;-71
2022/10/02 02:18:59;;;;;;;4.23;2.03;;;13.10;99.90;;;;;;5008541;28;20476;-71
2022/10/02 02:21:30;;;;;;;4.97;2.33;;;13.10;99.90;;;;;;5007461;28;20460;-71
2022/10/02 02:23:58;;;;;;;2.80;1.77;;;13.10;99.90;;;;;;5004403;28;20550;-71
2022/10/02 02:26:26;;;;;;;9.00;2.50;;;13.10;99.90;;;;;;5003919;28;20456;-70
2022/10/02 02:28:56;;;;;;;9.00;2.10;;;13.10;99.90;;;;;;5013296;28;20506;-71
2022/10/02 02:31:27;;;;;;;7.80;2.57;;;13.10;99.90;;;;;;5024241;28;20565;-71
2022/10/02 02:33:59;;;;;;;6.90;2.97;;;13.10;99.90;;;;;;5008704;28;20447;-71
2022/10/02 02:36:36;;;;;;;5.53;2.30;;;13.10;99.90;;;;;;4988243;28;20461;-71
2022/10/02 02:39:12;;;;;;;6.20;2.20;;;13.10;99.90;;;;;;5009742;28;20558;-72
2022/10/02 02:41:45;;;;;;;5.97;2.87;;;13.10;99.90;;;;;;4997489;28;20452;-71
2022/10/02 02:44:31;;;;;;;4.13;1.90;;;13.10;99.90;;;;;;5009520;28;20452;-71
2022/10/02 02:47:14;;;;;;;5.67;2.20;;;13.10;99.90;;;;;;5010707;28;20448;-71
2022/10/02 02:49:47;;;;;;;6.30;2.30;;;13.10;99.90;;;;;;5011665;28;20818;-71
2022/10/02 02:52:21;;;;;;;6.93;2.10;;;13.10;99.90;;;;;;5011844;28;20456;-71
2022/10/02 02:55:13;;;;;;;9.37;2.03;;;13.10;99.90;;;;;;5005406;28;20475;-72
2022/10/02 02:57:55;;;;;;;4.33;2.53;;;13.10;99.90;;;;;;5004206;28;20467;-71
2022/10/02 03:00:22;;;;;;;12.43;1.83;;;13.10;99.90;;;;;;4993744;28;20969;-71
2022/10/02 03:02:49;;;;;;;6.93;3.03;;;13.10;99.90;;;;;;5004463;28;20463;-70
2022/10/02 03:05:17;;;;;;;10.03;2.80;;;13.10;99.90;;;;;;5018472;28;20495;-71
2022/10/02 03:08:02;;;;;;;5.30;2.50;;;13.10;99.90;;;;;;4992767;28;20470;-71
2022/10/02 03:10:56;;;;;;;3.17;2.27;;;13.10;99.90;;;;;;5005190;28;20479;-72
2022/10/02 03:13:41;;;;;;;9.37;1.83;;;13.10;99.90;;;;;;5004962;28;20468;-72
2022/10/02 03:16:15;;;;;;;8.00;2.57;;;13.10;99.90;;;;;;5012988;28;20447;-70
2022/10/02 03:18:59;;;;;;;3.43;1.97;;;13.10;99.90;;;;;;4989915;28;20956;-71
2022/10/02 03:21:36;;;;;;;8.90;2.50;;;13.10;99.90;;;;;;5005978;28;20450;-71
2022/10/02 03:24:24;;;;;;;3.63;2.37;;;13.10;99.90;;;;;;5019981;28;20479;-72
2022/10/02 03:27:04;;;;;;;4.83;1.90;;;13.10;99.90;;;;;;5019574;28;20478;-72
2022/10/02 03:29:38;;;;;;;7.60;2.87;;;13.10;99.90;;;;;;5013492;28;20497;-72
2022/10/02 03:32:06;;;;;;;8.23;2.60;;;13.10;99.90;;;;;;4992907;28;20479;-71
2022/10/02 03:34:33;;;;;;;4.37;2.77;;;13.10;99.90;;;;;;5010132;28;20518;-72
2022/10/02 03:37:01;;;;;;;4.70;2.80;;;13.10;99.90;;;;;;4992146;28;20451;-70
2022/10/02 03:39:26;;;;;;;4.03;2.47;;;13.10;99.90;;;;;;5004212;28;20501;-72
2022/10/02 03:41:53;;;;;;;4.70;2.27;;;13.10;99.90;;;;;;5006712;28;20456;-71
2022/10/02 03:44:18;;;;;;;7.50;2.63;;;13.20;99.90;;;;;;4993662;28;20300;-72
2022/10/02 03:46:44;;;;;;;9.97;3.23;;;13.20;99.90;;;;;;5011180;28;21035;-70
2022/10/02 03:49:10;;;;;;;6.00;3.00;;;13.20;99.90;;;;;;5026672;28;20234;-71
2022/10/02 03:51:35;;;;;;;10.97;3.53;;;13.20;99.90;;;;;;5002012;28;20254;-72
2022/10/02 03:54:02;;;;;;;13.33;3.20;;;13.20;99.90;;;;;;4989219;28;20241;-71
2022/10/02 03:56:45;;;;;;;6.50;5.50;;;13.20;99.90;;;;;;5011859;28;20224;-73
2022/10/02 03:59:16;;;;;;;6.27;3.07;;;13.20;99.90;;;;;;4995395;28;20496;-71
2022/10/02 04:01:47;;;;;;;11.37;3.47;;;13.20;99.90;;;;;;5016469;28;21034;-72
2022/10/02 04:04:22;;;;;;;10.57;3.40;;;13.20;99.90;;;;;;5019022;28;20543;-72
2022/10/02 04:06:57;;;;;;;6.27;3.90;;;13.20;99.90;;;;;;5017306;28;20505;-70
2022/10/02 04:09:38;;;;;;;7.37;3.60;;;13.20;99.90;;;;;;5024280;28;20505;-72
2022/10/02 04:12:22;;;;;;;5.57;3.50;;;13.20;99.90;;;;;;5005027;28;20444;-72
2022/10/02 04:14:57;;;;;;;13.43;3.70;;;13.20;99.90;;;;;;5018650;28;20448;-70
2022/10/02 04:17:33;;;;;;;5.70;3.40;;;13.20;99.90;;;;;;5009079;28;20433;-72
2022/10/02 04:20:06;;;;;;;9.30;4.00;;;13.30;99.90;;;;;;5013604;28;20449;-72
2022/10/02 04:22:36;;;;;;;12.87;3.60;;;13.30;99.90;;;;;;5001049;28;20522;-73
2022/10/02 04:25:07;;;;;;;8.07;4.00;;;13.30;99.90;;;;;;5023734;28;21144;-70
2022/10/02 04:27:40;;;;;;;11.00;3.77;;;13.30;99.90;;;;;;5012837;28;20474;-73
2022/10/02 04:30:17;;;;;;;9.10;3.33;;;13.30;99.90;;;;;;4987784;28;20475;-71
2022/10/02 04:32:43;;;;;;;7.67;3.43;;;13.30;99.90;;;;;;4998208;28;20459;-71
2022/10/02 04:35:41;;;;;;;7.83;3.70;;;13.30;99.90;;;;;;5027281;28;20453;-71
2022/10/02 04:38:47;;;;;;;14.53;3.30;;;13.30;99.90;;;;;;5012104;28;20452;-71
2022/10/02 04:41:27;;;;;;;4.40;3.60;;;13.30;99.90;;;;;;5007140;28;20464;-72
2022/10/02 04:44:15;;;;;;;9.63;4.17;;;13.30;99.90;;;;;;5006616;28;20465;-71
2022/10/02 04:47:05;;;;;;;6.40;3.50;;;13.30;99.90;;;;;;4992415;28;20452;-73
2022/10/02 04:49:43;;;;;;;6.73;3.70;;;13.30;99.90;;;;;;5024553;28;20482;-71
2022/10/02 04:52:14;;;;;;;4.73;4.27;;;13.30;99.90;;;;;;4997146;28;20534;-73
2022/10/02 04:54:49;;;;;;;9.57;3.63;;;13.30;99.90;;;;;;5008594;28;20452;-72
2022/10/02 04:57:26;;;;;;;7.37;3.70;;;13.30;99.90;;;;;;4990536;28;21019;-72
2022/10/02 04:59:57;;;;;;;7.97;3.37;;;13.30;99.90;;;;;;5021040;28;20471;-72
2022/10/02 05:02:29;;;;;;;6.83;3.13;;;13.30;99.90;;;;;;5010493;28;20451;-72
2022/10/02 05:04:57;;;;;;;3.73;2.80;;;13.30;99.90;;;;;;5009240;28;20523;-71
2022/10/02 05:07:48;;;;;;;4.43;3.13;;;13.30;99.90;;;;;;5009465;28;20514;-72
2022/10/02 05:10:48;;;;;;;7.40;2.80;;;13.30;99.90;;;;;;4992807;28;20464;-72
2022/10/02 05:13:31;;;;;;;3.23;2.87;;;13.30;99.90;;;;;;5021419;28;20475;-72
2022/10/02 05:16:24;;;;;;;4.00;3.07;;;13.30;99.90;;;;;;5013778;28;20451;-71
2022/10/02 05:18:56;;;;;;;8.63;3.07;;;13.30;99.90;;;;;;5007006;28;20448;-72
2022/10/02 05:21:34;;;;;;;8.70;3.80;;;13.30;99.90;;;;;;5020043;28;20451;-72
2022/10/02 05:24:11;;;;;;;11.87;3.33;;;13.30;99.90;;;;;;5011259;28;20452;-71
2022/10/02 05:27:01;;;;;;;3.97;2.90;;;13.30;99.90;;;;;;5010080;28;20445;-71
2022/10/02 05:29:36;;;;;;;6.83;3.57;;;13.30;99.90;;;;;;4996502;28;20570;-73
2022/10/02 05:32:29;;;;;;;10.27;3.17;;;13.30;99.90;;;;;;5017319;28;20473;-74
2022/10/02 05:35:05;;;;;;;4.97;2.80;;;13.30;99.90;;;;;;5004085;28;20491;-71
2022/10/02 05:37:55;;;;;;;3.73;2.63;;;13.30;99.90;;;;;;4989753;28;20466;-72
2022/10/02 05:40:30;;;;;;;3.73;3.00;;;13.30;99.90;;;;;;5003302;28;20444;-72
2022/10/02 05:43:05;;;;;;;7.13;2.80;;;13.30;99.90;;;;;;5019506;28;20982;-72
2022/10/02 05:45:48;;;;;;;7.67;2.27;;;13.30;99.90;;;;;;5019824;28;20531;-73
2022/10/02 05:48:27;;;;;;;3.13;2.53;;;13.30;99.90;;;;;;5012895;28;20464;-69
2022/10/02 05:51:12;;;;;;;3.23;2.93;;;13.30;99.90;;;;;;5007875;28;20475;-72
2022/10/02 05:54:02;;;;;;;5.83;2.53;;;13.30;99.90;;;;;;5004384;28;20444;-73
2022/10/02 05:56:38;;;;;;;4.57;2.20;;;13.30;99.90;;;;;;5008716;28;20463;-70
2022/10/02 05:59:23;;;;;;;8.93;3.43;;;13.30;99.90;;;;;;5014527;28;20452;-73
2022/10/02 06:01:49;;;;;;;7.00;2.30;;;13.30;99.90;;;;;;5003223;28;20444;-72
2022/10/02 06:04:34;;;;;;;4.87;2.30;;;13.30;99.90;;;;;;5003390;28;20453;-72
2022/10/02 06:07:05;;;;;;;2.47;2.27;;;13.30;99.90;;;;;;5013617;28;20464;-72
2022/10/02 06:09:44;;;;;;;2.37;2.20;;;13.30;99.90;;;;;;5021533;28;20480;-72
2022/10/02 06:12:19;;;;;;;5.87;2.60;;;13.20;99.90;;;;;;5008701;28;20465;-72
2022/10/02 06:14:57;;;;;;;3.73;2.07;;;13.30;99.90;;;;;;5009449;28;20535;-72
2022/10/02 06:17:30;;;;;;;4.80;1.90;;;13.20;99.90;;;;;;4996128;28;20451;-73
2022/10/02 06:20:15;;;;;;;3.93;2.47;;;13.20;99.90;;;;;;4995782;28;20459;-72
2022/10/02 06:22:46;;;;;;;2.53;1.87;;;13.20;99.90;;;;;;5006912;28;20463;-72
2022/10/02 06:25:36;;;;;;;2.47;2.20;;;13.20;99.90;;;;;;5008540;28;20444;-71
2022/10/02 06:28:32;;;;;;;2.63;2.30;;;13.20;99.90;;;;;;5000068;28;20460;-72
2022/10/02 06:31:09;;;;;;;2.73;1.93;;;13.20;99.90;;;;;;5003321;28;20526;-71
2022/10/02 06:33:34;;;;;;;3.67;2.23;;;13.20;99.90;;;;;;5003715;28;20476;-72
2022/10/02 06:36:21;;;;;;;2.57;2.00;;;13.20;99.90;;;;;;5005885;28;20949;-71
2022/10/02 06:38:56;;;;;;;5.10;2.67;;;13.20;99.90;;;;;;5010475;28;20217;-71
2022/10/02 06:41:47;;;;;;;4.70;2.83;;;13.20;99.90;;;;;;5019440;28;20455;-71
2022/10/02 06:44:46;;;;;;;2.97;2.30;;;13.20;99.90;;;;;;5010031;28;20459;-72
2022/10/02 06:47:21;;;;;;;3.63;2.00;;;13.20;99.90;;;;;;5005114;28;20468;-71
2022/10/02 06:50:10;;;;;;;2.93;2.23;;;13.20;99.90;;;;;;5021621;28;20459;-70
2022/10/02 06:52:52;;;;;;;2.43;1.90;;;13.20;99.90;;;;;;4991446;28;20944;-72
2022/10/02 06:56:11;;;;;;;8.20;2.57;;;13.20;99.90;;;;;;5013002;28;20444;-72
2022/10/02 06:58:50;;;;;;;6.93;2.30;;;13.20;99.90;;;;;;5002626;28;20445;-73
2022/10/02 07:01:21;;;;;;;4.80;2.30;;;13.20;99.90;;;;;;5009011;28;20828;-70
2022/10/02 07:04:25;;;;;;;2.20;2.00;;;13.20;99.90;;;;;;5017482;28;20540;-72
2022/10/02 07:07:11;;;;;;;2.47;2.27;;;13.20;99.90;;;;;;5016134;28;20451;-72
2022/10/02 07:10:21;;;;;;;3.70;2.27;;;13.20;99.90;;;;;;5000213;28;20960;-71
2022/10/02 07:12:52;;;;;;;4.00;1.60;;;13.20;99.90;;;;;;4976274;28;20871;-73
2022/10/02 07:16:07;;;;;;;5.97;2.50;;;13.20;99.90;;;;;;4955485;28;21056;-70
2022/10/02 07:18:51;;;;;;;4.40;1.90;;;13.20;99.90;;;;;;5005625;28;20535;-72
2022/10/02 07:21:59;;;;;;;2.13;1.93;;;13.20;99.90;;;;;;5006333;28;20440;-72
2022/10/02 07:24:48;;;;;;;2.47;2.03;;;13.20;99.90;;;;;;4998466;28;20467;-72
2022/10/02 07:27:17;;;;;;;3.30;2.20;;;13.20;99.90;;;;;;4993982;28;20479;-73
2022/10/02 07:30:04;;;;;;;4.13;1.80;;;13.20;99.90;;;;;;5006122;28;20507;-73
2022/10/02 07:32:49;;;;;;;3.00;1.77;;;13.20;99.90;;;;;;4985393;28;20460;-71
2022/10/02 07:35:29;;;;;;;4.77;2.23;;;13.20;99.90;;;;;;4996097;28;20472;-72
2022/10/02 07:38:04;;;;;;;1.70;1.60;;;13.20;99.90;;;;;;5009735;28;20456;-73
2022/10/02 07:40:59;;;;;;;2.90;2.13;;;13.20;99.90;;;;;;5004259;28;20472;-72
2022/10/02 07:43:46;;;;;;;1.80;1.70;;;13.20;99.90;;;;;;5006530;28;20475;-72
2022/10/02 07:46:30;;;;;;;4.70;2.10;;;13.30;99.90;;;;;;5010202;28;20479;-72
2022/10/02 07:49:22;;;;;;;2.60;1.80;;;13.30;99.90;;;;;;5027170;28;20452;-72
2022/10/02 07:52:05;;;;;;;2.60;2.40;;;13.30;99.90;;;;;;4984849;28;20487;-73
2022/10/02 07:54:52;;;;;;;4.23;3.00;;;13.30;99.90;;;;;;5005589;28;20457;-71
2022/10/02 07:57:33;;;;;;;6.50;5.90;;;13.30;99.90;;;;;;5022239;28;20601;-72
2022/10/02 08:00:12;;;;;;;11.00;10.00;;;13.30;99.90;;;;;;5008155;28;20457;-72
2022/10/02 08:03:18;;;;;;;12.67;11.57;;;13.30;99.90;;;;;;5026147;28;20440;-72
2022/10/02 08:05:48;;;;;;;10.20;9.40;;;13.30;99.90;;;;;;4996931;28;20447;-71
2022/10/02 08:08:38;;;;;;;5.20;4.80;;;13.30;99.90;;;;;;5005349;28;20519;-72
2022/10/02 08:11:22;;;;;;;35.70;21.50;;;13.40;99.90;;;;;;5010507;28;20467;-71
2022/10/02 08:13:52;;;;;;;36.43;22.13;;;13.40;99.90;;;;;;4991221;28;20455;-72
2022/10/02 08:16:21;;;;;;;8.83;6.30;;;13.40;99.90;;;;;;5008262;28;20510;-71
2022/10/02 08:18:55;;;;;;;4.83;4.43;;;13.40;99.90;;;;;;5025689;28;20460;-70
2022/10/02 08:21:23;;;;;;;6.23;5.60;;;13.40;99.90;;;;;;5006769;28;20530;-71
2022/10/02 08:24:00;;;;;;;6.90;6.30;;;13.40;99.90;;;;;;4991769;28;20464;-72
2022/10/02 08:26:35;;;;;;;6.67;6.17;;;13.40;99.90;;;;;;4985189;28;20469;-72
2022/10/02 08:29:28;;;;;;;6.03;4.30;;;13.40;99.90;;;;;;5012027;28;20811;-71
2022/10/02 08:31:55;;;;;;;4.47;4.07;;;13.40;99.90;;;;;;4984018;28;20843;-71
2022/10/02 08:34:23;;;;;;;4.73;3.30;;;13.40;99.90;;;;;;5004811;28;20955;-73
2022/10/02 08:36:49;;;;;;;2.20;2.10;;;13.40;99.90;;;;;;5009569;28;20460;-72
2022/10/02 08:39:29;;;;;;;3.10;2.80;;;13.40;99.90;;;;;;5003170;28;20448;-72
2022/10/02 08:42:24;;;;;;;3.10;2.73;;;13.40;99.90;;;;;;5007397;28;20217;-71
2022/10/02 08:45:17;;;;;;;1.90;1.80;;;13.40;99.90;;;;;;4989953;28;20448;-72
2022/10/02 08:48:14;;;;;;;2.80;2.00;;;13.40;99.90;;;;;;5005967;28;20487;-71
2022/10/02 08:50:58;;;;;;;2.00;1.83;;;13.40;99.90;;;;;;5009144;28;20471;-73
2022/10/02 08:53:46;;;;;;;1.80;1.70;;;13.40;99.90;;;;;;5009691;28;20507;-71
2022/10/02 08:56:36;;;;;;;4.80;1.40;;;13.40;99.90;;;;;;5009448;28;20468;-73
2022/10/02 08:59:07;;;;;;;24.80;16.43;;;13.50;99.90;;;;;;5001586;28;20549;-74
2022/10/02 09:01:55;;;;;;;34.17;22.63;;;13.50;99.90;;;;;;5017234;28;20469;-73
2022/10/02 09:04:51;;;;;;;10.13;6.90;;;13.50;99.90;;;;;;5018104;28;21002;-73
2022/10/02 09:07:47;;;;;;;6.57;5.97;;;13.50;99.90;;;;;;5036091;28;20475;-73
2022/10/02 09:10:37;;;;;;;3.10;2.90;;;13.50;99.90;;;;;;5020893;28;20472;-73
2022/10/02 09:13:26;;;;;;;3.17;2.97;;;13.50;99.90;;;;;;5032345;28;20513;-73
2022/10/02 09:16:09;;;;;;;2.90;2.70;;;13.50;99.90;;;;;;5011309;28;20469;-72
2022/10/02 09:18:43;;;;;;;4.83;4.43;;;13.50;99.90;;;;;;5017085;28;20428;-72
2022/10/02 09:21:23;;;;;;;6.00;5.50;;;13.50;99.90;;;;;;5008278;28;20461;-73
2022/10/02 09:24:04;;;;;;;6.37;3.93;;;13.50;99.90;;;;;;5005083;28;20483;-72
2022/10/02 09:27:00;;;;;;;2.50;2.10;;;13.50;99.90;;;;;;5013531;28;20555;-72
2022/10/02 09:30:04;;;;;;;2.07;1.87;;;13.60;99.90;;;;;;5015260;28;20498;-71
2022/10/02 09:32:42;;;;;;;2.07;1.97;;;13.60;99.90;;;;;;5025439;28;20464;-71
2022/10/02 09:35:23;;;;;;;4.23;3.43;;;13.60;99.90;;;;;;5008887;28;20460;-72
2022/10/02 09:38:12;;;;;;;4.00;3.60;;;13.60;99.90;;;;;;5009227;28;20444;-71
2022/10/02 09:41:01;;;;;;;2.60;2.30;;;13.60;99.90;;;;;;5017629;28;20455;-72
2022/10/02 09:43:35;;;;;;;2.73;1.23;;;13.60;99.90;;;;;;5024044;28;20467;-72
2022/10/02 09:46:18;;;;;;;1.90;1.30;;;13.60;99.90;;;;;;5011325;28;20455;-72
2022/10/02 09:49:07;;;;;;;2.17;1.53;;;13.60;99.90;;;;;;4989057;28;20458;-70
2022/10/02 09:51:47;;;;;;;1.60;1.50;;;13.60;99.90;;;;;;4994403;28;20495;-71
2022/10/02 09:54:37;;;;;;;14.77;9.17;;;13.60;99.90;;;;;;5014202;28;20456;-73
2022/10/02 09:57:30;;;;;;;31.57;23.63;;;13.60;99.90;;;;;;4999735;28;20464;-71
2022/10/02 10:00:19;;;;;;;13.13;10.50;;;13.60;99.90;;;;;;5011147;28;20457;-72
2022/10/02 10:03:04;;;;;;;3.97;2.70;;;13.60;99.90;;;;;;5021699;28;20461;-70
2022/10/02 10:06:00;;;;;;;26.77;17.00;;;13.60;99.90;;;;;;5012501;28;20457;-71
2022/10/02 10:09:10;;;;;;;13.80;10.73;;;13.60;99.90;;;;;;4991291;28;20472;-71
2022/10/02 10:11:54;;;;;;;38.83;33.43;;;13.60;99.90;;;;;;5018166;28;20992;-72
2022/10/02 10:14:47;;;;;;;69.80;45.23;;;13.60;99.90;;;;;;4993199;28;20983;-72
2022/10/02 10:17:38;;;;;;;81.17;39.73;;;13.60;99.90;;;;;;5016532;28;20956;-71
2022/10/02 10:20:29;;;;;;;61.20;35.80;;;13.60;99.90;;;;;;5009223;28;20448;-73
2022/10/02 10:23:19;;;;;;;29.47;19.07;;;13.70;99.90;;;;;;4996075;28;20455;-71
2022/10/02 10:25:53;;;;;;;13.23;9.10;;;13.70;99.90;;;;;;5010308;28;20460;-71
2022/10/02 10:28:43;;;;;;;16.20;10.80;;;13.70;99.90;;;;;;5010581;28;20458;-73
2022/10/02 10:32:00;;;;;;;11.23;9.53;;;13.70;99.90;;;;;;5015538;28;20479;-71
2022/10/02 10:34:37;;;;;;;6.00;5.40;;;13.70;99.90;;;;;;5009691;28;20468;-73
2022/10/02 10:40:43;;;;;;;5.40;4.90;;;13.80;99.90;;;;;;5020444;28;20448;-73
2022/10/02 10:43:35;;;;;;;3.50;3.20;;;13.80;99.90;;;;;;5005887;28;20452;-71
2022/10/02 10:46:30;;;;;;;3.13;2.90;;;13.80;99.90;;;;;;5009317;28;20487;-71
2022/10/02 10:49:05;;;;;;;2.23;2.13;;;13.80;99.90;;;;;;5007789;28;20451;-73
2022/10/02 10:51:52;;;;;;;1.90;1.60;;;13.90;99.90;;;;;;5014624;28;20543;-71
2022/10/02 10:54:43;;;;;;;1.60;1.50;;;13.90;99.90;;;;;;4995677;28;20534;-72
2022/10/02 10:57:21;;;;;;;1.87;1.63;;;13.90;99.90;;;;;;5025751;28;20459;-71
2022/10/02 11:00:06;;;;;;;12.63;7.63;;;13.90;99.90;;;;;;5001888;28;20514;-72
2022/10/02 11:03:05;;;;;;;35.77;20.03;;;13.90;99.90;;;;;;5009374;28;20677;-70
2022/10/02 11:05:37;;;;;;;46.37;29.37;;;14.00;99.90;;;;;;5004995;28;20456;-73
2022/10/02 11:08:21;;;;;;;26.53;16.10;;;14.00;99.90;;;;;;4994345;28;20451;-72
2022/10/02 11:11:00;;;;;;;6.83;5.33;;;14.00;99.90;;;;;;5002427;28;20492;-72
2022/10/02 11:14:11;;;;;;;2.90;2.60;;;14.00;99.90;;;;;;4998615;28;20471;-71
2022/10/02 11:17:15;;;;;;;2.50;2.30;;;14.00;99.90;;;;;;5007784;28;20890;-71
2022/10/02 11:20:07;;;;;;;2.27;2.13;;;14.00;99.90;;;;;;5007294;28;20455;-70
2022/10/02 11:22:39;;;;;;;1.70;1.60;;;14.00;99.90;;;;;;5016645;28;20564;-72
2022/10/02 11:25:18;;;;;;;1.60;1.50;;;14.10;99.90;;;;;;5007851;28;20451;-71
2022/10/02 11:28:10;;;;;;;2.30;2.10;;;14.00;99.90;;;;;;5008374;28;20507;-71
2022/10/02 11:31:06;;;;;;;1.60;1.50;;;14.00;99.90;;;;;;5006274;28;20976;-72
2022/10/02 11:33:56;;;;;;;1.80;1.70;;;14.10;99.90;;;;;;4999676;28;20596;-71
2022/10/02 11:36:39;;;;;;;1.87;1.63;;;14.10;99.90;;;;;;4987393;28;20467;-71
2022/10/02 11:39:13;;;;;;;2.53;1.83;;;14.10;99.90;;;;;;5003408;28;20471;-72
2022/10/02 11:42:11;;;;;;;2.33;1.40;;;14.10;99.90;;;;;;4996677;28;20448;-71
2022/10/02 11:44:55;;;;;;;1.70;1.60;;;14.10;99.90;;;;;;4989558;28;20453;-72
2022/10/02 11:47:30;;;;;;;1.97;1.50;;;14.10;99.90;;;;;;5014780;28;20479;-71
2022/10/02 11:50:04;;;;;;;1.13;1.00;;;14.10;99.90;;;;;;5010948;28;20478;-71
2022/10/02 11:52:33;;;;;;;0.90;0.90;;;14.10;99.90;;;;;;5006042;28;21079;-71
2022/10/02 11:55:17;;;;;;;1.23;1.07;;;14.10;99.90;;;;;;5007024;28;20523;-71
2022/10/02 11:58:03;;;;;;;1.33;1.00;;;14.10;99.90;;;;;;5013515;28;20553;-71
2022/10/02 12:00:55;;;;;;;1.10;1.00;;;14.10;99.90;;;;;;5014128;28;20542;-71
2022/10/02 12:04:17;;;;;;;3.47;1.53;;;14.10;99.90;;;;;;5013730;28;20482;-72
2022/10/02 12:07:03;;;;;;;2.07;1.60;;;14.10;99.90;;;;;;4971017;28;20596;-72
2022/10/02 12:10:17;;;;;;;1.77;1.67;;;14.20;99.90;;;;;;4973575;28;20461;-71
2022/10/02 12:13:01;;;;;;;1.33;1.30;;;14.20;99.90;;;;;;4998586;28;20827;-72
2022/10/02 12:15:55;;;;;;;1.83;1.40;;;14.20;99.90;;;;;;5010014;28;20454;-70
2022/10/02 12:18:32;;;;;;;1.33;1.27;;;14.20;99.90;;;;;;4991516;28;20494;-72
2022/10/02 12:28:13;;;;;;;46.27;28.47;;;14.30;99.90;;;;;;4989141;28;20459;-72
2022/10/02 12:31:02;;;;;;;103.57;54.10;;;14.30;99.90;;;;;;4999795;28;20502;-71
2022/10/02 12:33:43;;;;;;;111.87;57.70;;;14.30;99.90;;;;;;4988928;28;20554;-72
2022/10/02 12:36:48;;;;;;;178.33;94.90;;;14.30;99.90;;;;;;5024401;28;20447;-72
2022/10/02 12:39:49;;;;;;;155.60;84.07;;;14.30;99.90;;;;;;5017923;28;20503;-71
2022/10/02 12:42:41;;;;;;;108.73;61.97;;;14.30;99.90;;;;;;5009148;28;20802;-73
2022/10/02 12:45:09;;;;;;;83.13;49.67;;;14.30;99.90;;;;;;5012196;28;20463;-73
2022/10/02 12:47:44;;;;;;;53.27;34.07;;;14.30;99.90;;;;;;5002779;28;20448;-73
2022/10/02 12:50:37;;;;;;;28.97;20.60;;;14.40;99.90;;;;;;5010138;28;20486;-72
2022/10/02 12:53:21;;;;;;;27.90;21.80;;;14.40;99.90;;;;;;5010729;28;20468;-72
2022/10/02 12:56:21;;;;;;;23.43;20.23;;;14.40;99.90;;;;;;5029104;28;20446;-72
2022/10/02 12:59:16;;;;;;;16.50;13.50;;;14.40;99.90;;;;;;5015348;28;21042;-71
2022/10/02 13:02:06;;;;;;;6.20;5.60;;;14.40;99.90;;;;;;5016161;28;20460;-72
2022/10/02 13:04:56;;;;;;;3.13;2.90;;;14.40;99.90;;;;;;5007714;28;20456;-70
2022/10/02 13:07:29;;;;;;;2.50;2.30;;;14.50;99.90;;;;;;4993731;28;20973;-71
2022/10/02 13:09:57;;;;;;;4.70;2.63;;;14.50;99.90;;;;;;4997281;28;20492;-72
2022/10/02 13:12:35;;;;;;;2.93;2.60;;;14.50;99.90;;;;;;5001756;28;20483;-70
2022/10/02 13:15:33;;;;;;;3.50;2.43;;;14.50;99.90;;;;;;5014562;28;20452;-72
2022/10/02 13:18:05;;;;;;;1.50;1.40;;;14.60;99.90;;;;;;5007805;28;20476;-72
2022/10/02 13:20:37;;;;;;;1.70;1.60;;;14.60;99.90;;;;;;5015847;28;20467;-72
2022/10/02 13:23:11;;;;;;;3.00;2.40;;;14.60;99.90;;;;;;5024743;28;20459;-72
2022/10/02 13:26:03;;;;;;;4.40;2.13;;;14.60;99.90;;;;;;5016132;28;20447;-72
2022/10/02 13:28:37;;;;;;;6.50;5.83;;;14.70;99.90;;;;;;5002102;28;20499;-70
2022/10/02 13:31:38;;;;;;;8.13;6.50;;;14.70;99.90;;;;;;5013209;28;20471;-71
2022/10/02 13:34:35;;;;;;;17.50;9.77;;;14.70;99.90;;;;;;4991403;28;20477;-72
2022/10/02 13:37:14;;;;;;;23.17;14.87;;;14.70;99.90;;;;;;5017146;28;20488;-72
2022/10/02 13:39:42;;;;;;;35.30;18.67;;;14.70;99.90;;;;;;4990627;28;20590;-72
2022/10/02 13:42:16;;;;;;;54.17;25.47;;;14.70;99.90;;;;;;4991634;28;20455;-71
2022/10/02 13:45:10;;;;;;;40.93;20.97;;;14.70;99.90;;;;;;5013799;28;20468;-72
2022/10/02 13:48:02;;;;;;;120.93;47.50;;;14.70;99.90;;;;;;5015010;28;20458;-71
2022/10/02 13:51:01;;;;;;;270.23;112.27;;;14.80;99.90;;;;;;5016075;28;20475;-72
2022/10/02 13:53:48;;;;;;;480.17;190.47;;;14.80;99.90;;;;;;5016648;28;20455;-71
2022/10/02 13:56:46;;;;;;;493.37;209.60;;;14.80;99.90;;;;;;4989853;28;20491;-73
2022/10/02 13:59:26;;;;;;;431.90;192.37;;;14.80;99.90;;;;;;5017100;28;20452;-74
2022/10/02 14:02:00;;;;;;;408.57;183.70;;;14.80;99.90;;;;;;5033316;28;20493;-71
2022/10/02 14:05:03;;;;;;;296.50;137.93;;;14.80;99.90;;;;;;4985293;28;20471;-72
2022/10/02 14:08:11;;;;;;;225.20;105.00;;;14.80;99.90;;;;;;5010710;28;20451;-71